Time;durP1;ratioP1;P1;durP2;ratioP2;P2;SDS_P1;SDS_P2;PMS_P1;PMS_P2;Temp;Humidity;BMP_temperature;BMP_pressure;BME280_temperature;BME280_humidity;BME280_pressure;Samples;Min_cycle;Max_cycle;Signal;HPM_P1;HPM_P2
2021/10/18 00:02:23;;;;;;;7.78;4.90;;;14.00;78.40;;;;;;5068328;28;20027;-73
2021/10/18 00:04:49;;;;;;;10.35;5.10;;;14.10;78.40;;;;;;5053001;28;20490;-73
2021/10/18 00:07:15;;;;;;;8.60;5.45;;;14.00;78.30;;;;;;5053476;28;20545;-73
2021/10/18 00:09:41;;;;;;;8.68;5.20;;;14.00;78.30;;;;;;5053137;28;20052;-73
2021/10/18 00:12:07;;;;;;;8.98;5.22;;;14.00;78.30;;;;;;5053355;28;20029;-73
2021/10/18 00:14:32;;;;;;;8.85;5.43;;;14.00;78.30;;;;;;5053356;28;20036;-73
2021/10/18 00:16:58;;;;;;;7.65;4.63;;;14.00;78.30;;;;;;5053443;28;20042;-73
2021/10/18 00:19:23;;;;;;;9.30;5.05;;;14.00;78.20;;;;;;5053163;28;20021;-73
2021/10/18 00:21:49;;;;;;;8.55;5.15;;;14.00;78.20;;;;;;5053278;28;20017;-73
2021/10/18 00:24:14;;;;;;;11.52;5.43;;;14.00;78.10;;;;;;5068677;28;20017;-74
2021/10/18 00:26:41;;;;;;;9.13;5.53;;;14.00;78.00;;;;;;5053124;28;20075;-73
2021/10/18 00:29:06;;;;;;;9.63;5.95;;;14.00;77.90;;;;;;5052970;28;20075;-73
2021/10/18 00:31:32;;;;;;;9.80;5.65;;;14.00;77.90;;;;;;5053219;28;20029;-73
2021/10/18 00:33:58;;;;;;;9.82;4.78;;;14.00;77.90;;;;;;5053150;28;20024;-73
2021/10/18 00:36:23;;;;;;;9.25;5.40;;;14.00;77.90;;;;;;5052983;28;20025;-74
2021/10/18 00:38:49;;;;;;;10.07;5.78;;;14.00;77.80;;;;;;5052931;28;20025;-73
2021/10/18 00:41:15;;;;;;;10.00;5.53;;;14.00;77.90;;;;;;5052740;28;20056;-73
2021/10/18 00:43:45;;;;;;;8.20;5.32;;;14.00;77.90;;;;;;5052866;28;20024;-73
2021/10/18 00:46:11;;;;;;;8.85;5.38;;;14.00;77.90;;;;;;5068302;28;20050;-73
2021/10/18 00:48:37;;;;;;;9.75;5.20;;;14.00;78.00;;;;;;5052875;28;20423;-73
2021/10/18 00:51:03;;;;;;;9.13;5.65;;;14.00;77.90;;;;;;5052688;28;20117;-73
2021/10/18 00:53:29;;;;;;;10.32;5.53;;;14.00;77.80;;;;;;5068108;28;20078;-73
2021/10/18 00:55:56;;;;;;;9.43;5.35;;;13.90;77.80;;;;;;5051647;28;20108;-73
2021/10/18 00:58:25;;;;;;;9.73;5.45;;;14.00;77.70;;;;;;5052391;28;20029;-73
2021/10/18 01:00:51;;;;;;;9.93;5.80;;;14.00;77.60;;;;;;5052533;28;20031;-73
2021/10/18 01:03:19;;;;;;;11.10;5.68;;;14.10;77.50;;;;;;5067878;28;20109;-73
2021/10/18 01:05:44;;;;;;;7.95;5.40;;;14.10;77.40;;;;;;5052446;28;20021;-72
2021/10/18 01:08:11;;;;;;;9.05;5.53;;;14.10;77.30;;;;;;5052544;28;20111;-73
2021/10/18 01:10:37;;;;;;;8.10;5.43;;;14.10;77.10;;;;;;5052114;28;20049;-73
2021/10/18 01:13:04;;;;;;;9.48;5.18;;;14.10;77.00;;;;;;5067894;28;20086;-73
2021/10/18 01:15:30;;;;;;;8.85;5.20;;;14.20;77.00;;;;;;5052325;28;20029;-73
2021/10/18 01:17:55;;;;;;;9.05;5.60;;;14.20;76.90;;;;;;5052355;28;20017;-74
2021/10/18 01:20:31;;;;;;;11.02;5.80;;;14.10;76.80;;;;;;5067271;28;20650;-73
2021/10/18 01:22:58;;;;;;;9.50;5.35;;;14.20;76.90;;;;;;5052296;28;20025;-74
2021/10/18 01:25:24;;;;;;;8.48;5.00;;;14.10;76.90;;;;;;5052046;28;20025;-74
2021/10/18 01:27:50;;;;;;;8.50;5.20;;;14.20;77.00;;;;;;5052223;28;20074;-74
2021/10/18 01:30:16;;;;;;;8.35;5.00;;;14.20;76.90;;;;;;5051771;28;20029;-74
2021/10/18 01:32:43;;;;;;;7.38;4.82;;;14.20;77.00;;;;;;5052018;28;20029;-73
2021/10/18 01:35:09;;;;;;;8.20;4.97;;;14.10;76.90;;;;;;5067468;28;20029;-74
2021/10/18 01:37:35;;;;;;;10.63;5.50;;;14.10;76.80;;;;;;5052018;28;20032;-73
2021/10/18 01:40:04;;;;;;;8.80;5.03;;;14.10;76.90;;;;;;5067065;28;20486;-73
2021/10/18 01:42:29;;;;;;;9.23;5.55;;;14.10;77.00;;;;;;5051762;28;20565;-72
2021/10/18 01:44:55;;;;;;;9.32;5.50;;;14.10;77.10;;;;;;5051633;28;20110;-73
2021/10/18 01:47:20;;;;;;;8.93;5.30;;;14.10;77.20;;;;;;5051487;28;20025;-73
2021/10/18 01:49:46;;;;;;;9.60;5.57;;;14.00;77.10;;;;;;5051247;28;20440;-73
2021/10/18 01:52:11;;;;;;;9.98;5.85;;;14.00;77.20;;;;;;5051617;28;20029;-73
2021/10/18 01:54:37;;;;;;;10.10;5.47;;;14.00;77.20;;;;;;5067128;28;20033;-73
2021/10/18 01:57:02;;;;;;;10.73;5.53;;;14.00;77.40;;;;;;5067192;28;20063;-73
2021/10/18 01:59:29;;;;;;;10.18;5.65;;;14.00;77.20;;;;;;5051631;28;20482;-72
2021/10/18 02:01:54;;;;;;;11.90;5.60;;;14.00;77.30;;;;;;5067259;28;20021;-74
2021/10/18 02:04:20;;;;;;;9.13;5.13;;;14.00;77.30;;;;;;5051917;28;20047;-73
2021/10/18 02:06:45;;;;;;;7.93;4.93;;;14.00;77.30;;;;;;5051744;28;20466;-74
2021/10/18 02:09:10;;;;;;;9.63;5.15;;;14.00;77.30;;;;;;5055322;28;20176;-73
2021/10/18 02:11:36;;;;;;;10.23;5.55;;;14.00;77.20;;;;;;5070948;28;20082;-74
2021/10/18 02:14:02;;;;;;;11.65;5.40;;;14.00;77.10;;;;;;5055437;28;20482;-73
2021/10/18 02:16:27;;;;;;;10.45;5.60;;;13.90;77.00;;;;;;5054986;28;20067;-74
2021/10/18 02:18:53;;;;;;;10.43;5.32;;;14.00;77.00;;;;;;5070705;28;20136;-73
2021/10/18 02:21:18;;;;;;;10.00;5.35;;;14.00;77.00;;;;;;5055503;28;20036;-74
2021/10/18 02:23:44;;;;;;;8.40;5.10;;;14.00;77.00;;;;;;5055469;28;20493;-77
2021/10/18 02:26:09;;;;;;;9.63;5.45;;;14.00;77.00;;;;;;5055530;28;20021;-74
2021/10/18 02:28:35;;;;;;;9.70;5.43;;;14.00;77.00;;;;;;5055137;28;20029;-73
2021/10/18 02:31:00;;;;;;;10.73;5.60;;;14.00;77.00;;;;;;5070722;28;20152;-73
2021/10/18 02:33:26;;;;;;;8.50;5.00;;;14.00;77.00;;;;;;5055573;28;20040;-73
2021/10/18 02:35:51;;;;;;;8.60;4.80;;;14.00;77.10;;;;;;5055072;28;20028;-73
2021/10/18 02:38:17;;;;;;;10.93;4.85;;;14.00;77.00;;;;;;5054979;28;20033;-74
2021/10/18 02:40:42;;;;;;;8.38;5.00;;;14.00;77.00;;;;;;5070474;28;20507;-73
2021/10/18 02:43:08;;;;;;;10.13;5.18;;;14.00;77.00;;;;;;5055160;28;20665;-73
2021/10/18 02:45:33;;;;;;;9.18;4.70;;;14.00;76.90;;;;;;5070444;28;20471;-73
2021/10/18 02:47:59;;;;;;;7.85;4.75;;;14.00;77.00;;;;;;5055058;28;20033;-73
2021/10/18 02:50:25;;;;;;;8.07;4.75;;;14.00;77.00;;;;;;5064741;28;20025;-73
2021/10/18 02:52:50;;;;;;;8.23;4.75;;;14.00;76.90;;;;;;5036143;28;20036;-74
2021/10/18 02:55:16;;;;;;;7.97;4.90;;;14.00;77.40;;;;;;5043027;28;20033;-74
2021/10/18 02:57:41;;;;;;;7.80;4.97;;;14.00;76.90;;;;;;5034928;28;20096;-73
2021/10/18 03:00:07;;;;;;;9.15;4.88;;;14.00;76.80;;;;;;5034641;28;20124;-73
2021/10/18 03:02:33;;;;;;;8.82;4.95;;;14.00;76.90;;;;;;5035036;28;20495;-73
2021/10/18 03:04:58;;;;;;;8.32;4.70;;;14.00;76.90;;;;;;5035308;28;20033;-73
2021/10/18 03:07:24;;;;;;;7.82;4.80;;;14.00;76.90;;;;;;5033632;28;20071;-73
2021/10/18 03:09:49;;;;;;;8.63;4.65;;;14.00;76.90;;;;;;5033071;28;20510;-73
2021/10/18 03:12:15;;;;;;;8.40;4.78;;;14.00;76.80;;;;;;5034884;28;20033;-73
2021/10/18 03:14:40;;;;;;;8.52;4.40;;;14.00;76.80;;;;;;5034357;28;20025;-74
2021/10/18 03:17:06;;;;;;;7.80;4.82;;;14.00;77.30;;;;;;5034519;28;20049;-73
2021/10/18 03:19:31;;;;;;;9.65;4.85;;;14.00;76.80;;;;;;5032008;28;20025;-72
2021/10/18 03:21:57;;;;;;;8.45;4.47;;;14.00;76.80;;;;;;5034460;28;20388;-73
2021/10/18 03:24:23;;;;;;;8.50;4.38;;;14.00;76.80;;;;;;5034509;28;20466;-73
2021/10/18 03:26:48;;;;;;;6.95;3.88;;;14.00;76.70;;;;;;5034420;28;20026;-73
2021/10/18 03:29:14;;;;;;;7.78;4.40;;;14.00;76.70;;;;;;5032920;28;20442;-73
2021/10/18 03:31:39;;;;;;;8.57;4.65;;;14.00;76.70;;;;;;5033008;28;20029;-73
2021/10/18 03:34:05;;;;;;;10.05;4.85;;;14.00;76.60;;;;;;5034232;28;20119;-73
2021/10/18 03:36:31;;;;;;;7.93;4.43;;;14.00;76.70;;;;;;5034226;28;20636;-73
2021/10/18 03:38:57;;;;;;;8.68;4.60;;;14.00;76.70;;;;;;5033866;28;20029;-73
2021/10/18 03:41:23;;;;;;;6.88;4.20;;;14.00;76.70;;;;;;5032925;28;20475;-73
2021/10/18 03:43:48;;;;;;;7.50;4.28;;;14.00;76.80;;;;;;5034174;28;20049;-73
2021/10/18 03:46:14;;;;;;;7.85;4.22;;;14.00;76.90;;;;;;5032884;28;20017;-73
2021/10/18 03:48:39;;;;;;;7.13;4.38;;;14.00;77.00;;;;;;5033514;28;20040;-73
2021/10/18 03:51:05;;;;;;;8.93;4.20;;;14.00;77.10;;;;;;5033847;28;20069;-73
2021/10/18 03:53:30;;;;;;;9.30;4.32;;;14.00;77.20;;;;;;5033839;28;20029;-73
2021/10/18 03:55:56;;;;;;;7.30;4.03;;;14.00;77.40;;;;;;5038892;28;20103;-73
2021/10/18 03:58:21;;;;;;;8.82;4.43;;;14.00;77.30;;;;;;5053271;28;20021;-74
2021/10/18 04:00:47;;;;;;;8.15;4.63;;;14.00;77.30;;;;;;5053603;28;20051;-73
2021/10/18 04:03:12;;;;;;;7.70;4.00;;;14.00;77.30;;;;;;5053476;28;20025;-73
2021/10/18 04:05:38;;;;;;;8.15;4.32;;;14.10;77.20;;;;;;5053478;28;20112;-73
2021/10/18 04:08:04;;;;;;;6.10;3.50;;;14.10;77.20;;;;;;5053492;28;20048;-73
2021/10/18 04:10:32;;;;;;;7.88;4.28;;;14.10;77.20;;;;;;5052956;28;20045;-73
2021/10/18 04:12:59;;;;;;;7.13;3.88;;;14.10;77.20;;;;;;5068897;28;20033;-73
2021/10/18 04:15:24;;;;;;;6.55;3.95;;;14.10;77.10;;;;;;5053265;28;20563;-73
2021/10/18 04:17:50;;;;;;;6.05;3.78;;;14.10;77.00;;;;;;5053157;28;20061;-73
2021/10/18 04:20:16;;;;;;;7.18;3.58;;;14.10;77.00;;;;;;5052884;28;20091;-74
2021/10/18 04:22:46;;;;;;;6.53;3.85;;;14.10;77.00;;;;;;5051967;28;20025;-73
2021/10/18 04:25:11;;;;;;;6.60;3.58;;;14.10;77.10;;;;;;5053401;28;20029;-73
2021/10/18 04:27:37;;;;;;;6.40;3.60;;;14.10;77.00;;;;;;5051893;28;20035;-73
2021/10/18 04:30:03;;;;;;;5.50;3.45;;;14.10;77.00;;;;;;5052652;28;20035;-72
2021/10/18 04:32:29;;;;;;;7.60;3.67;;;14.10;77.10;;;;;;5052926;28;20114;-73
2021/10/18 04:34:55;;;;;;;6.85;3.80;;;14.10;77.20;;;;;;5052819;28;20100;-73
2021/10/18 04:37:20;;;;;;;6.85;3.95;;;14.00;77.30;;;;;;5052877;28;20043;-74
2021/10/18 04:39:46;;;;;;;6.78;3.72;;;14.00;77.40;;;;;;5052620;28;20104;-73
2021/10/18 04:42:11;;;;;;;6.65;3.55;;;14.00;77.50;;;;;;5052969;28;20025;-73
2021/10/18 04:44:37;;;;;;;7.05;3.50;;;14.00;77.60;;;;;;5053426;28;20115;-73
2021/10/18 04:47:04;;;;;;;7.20;3.80;;;14.00;77.70;;;;;;5049514;28;20025;-73
2021/10/18 04:49:29;;;;;;;7.00;3.50;;;14.00;77.80;;;;;;5039848;28;20017;-74
2021/10/18 04:51:55;;;;;;;6.55;3.10;;;14.00;77.80;;;;;;5042667;28;20540;-73
2021/10/18 04:54:20;;;;;;;6.60;3.42;;;14.00;77.80;;;;;;5051566;28;20017;-73
2021/10/18 04:56:46;;;;;;;5.70;3.20;;;14.00;77.90;;;;;;5050998;28;20017;-74
2021/10/18 04:59:11;;;;;;;6.15;3.38;;;14.00;78.00;;;;;;5052664;28;20017;-76
2021/10/18 05:01:37;;;;;;;5.55;3.17;;;14.00;78.00;;;;;;5052741;28;20483;-73
2021/10/18 05:04:02;;;;;;;7.20;3.63;;;14.00;78.00;;;;;;5051773;28;20021;-74
2021/10/18 05:06:28;;;;;;;5.78;3.28;;;14.00;78.10;;;;;;5049173;28;20036;-74
2021/10/18 05:08:54;;;;;;;6.15;3.60;;;14.00;78.10;;;;;;5051863;28;20025;-75
2021/10/18 05:11:20;;;;;;;5.88;3.40;;;14.00;78.20;;;;;;5046797;28;20721;-73
2021/10/18 05:13:46;;;;;;;5.60;3.10;;;14.00;78.30;;;;;;5032705;28;20105;-74
2021/10/18 05:16:11;;;;;;;7.10;3.10;;;14.00;78.90;;;;;;5031490;28;20112;-74
2021/10/18 05:18:37;;;;;;;5.85;3.17;;;14.00;78.40;;;;;;5032242;28;20025;-74
2021/10/18 05:21:05;;;;;;;7.78;3.60;;;14.00;78.50;;;;;;5031107;28;20021;-74
2021/10/18 05:23:34;;;;;;;8.63;3.08;;;14.00;78.50;;;;;;5031265;28;20075;-74
2021/10/18 05:26:02;;;;;;;7.80;3.50;;;14.00;78.60;;;;;;5032716;28;20095;-73
2021/10/18 05:28:27;;;;;;;10.82;3.40;;;14.00;78.70;;;;;;5032075;28;20029;-72
2021/10/18 05:30:53;;;;;;;9.68;3.53;;;14.00;78.80;;;;;;5032644;28;20112;-74
2021/10/18 05:33:20;;;;;;;10.07;3.80;;;13.90;78.20;;;;;;5040353;28;20554;-74
2021/10/18 05:35:46;;;;;;;11.02;3.42;;;13.90;76.40;;;;;;5038851;28;20501;-74
2021/10/18 05:38:20;;;;;;;9.60;3.45;;;13.90;75.70;;;;;;5041009;28;20100;-75
2021/10/18 05:40:47;;;;;;;8.70;3.22;;;13.90;75.30;;;;;;5038866;28;20021;-74
2021/10/18 05:43:12;;;;;;;9.90;3.75;;;13.90;74.60;;;;;;5041184;28;20363;-74
2021/10/18 05:45:38;;;;;;;10.65;3.50;;;14.00;74.60;;;;;;5048794;28;20041;-73
2021/10/18 05:48:04;;;;;;;8.07;3.55;;;13.80;74.40;;;;;;5048362;28;20032;-76
2021/10/18 05:50:33;;;;;;;9.25;3.80;;;13.70;74.10;;;;;;5047841;28;20025;-75
2021/10/18 05:52:58;;;;;;;8.43;3.58;;;13.90;74.10;;;;;;5050139;28;20032;-75
2021/10/18 05:55:24;;;;;;;7.90;3.47;;;13.90;73.10;;;;;;5051056;28;20043;-74
2021/10/18 05:57:54;;;;;;;8.23;3.40;;;13.90;73.30;;;;;;5052125;28;20056;-75
2021/10/18 06:00:21;;;;;;;8.77;3.47;;;13.90;72.70;;;;;;5050614;28;20021;-74
2021/10/18 06:02:46;;;;;;;8.85;3.67;;;13.90;72.90;;;;;;5050633;28;20036;-75
2021/10/18 06:05:12;;;;;;;8.73;3.28;;;13.80;72.60;;;;;;5050831;28;20025;-76
2021/10/18 06:07:38;;;;;;;9.10;3.75;;;13.80;72.50;;;;;;5051183;28;20025;-74
2021/10/18 06:10:05;;;;;;;29.65;5.95;;;13.90;72.90;;;;;;5050608;28;20288;-75
2021/10/18 06:12:31;;;;;;;44.20;7.57;;;13.90;73.50;;;;;;5051107;28;20025;-74
2021/10/18 06:14:56;;;;;;;30.15;5.25;;;13.90;73.70;;;;;;5050312;28;20025;-75
2021/10/18 06:17:22;;;;;;;20.77;4.65;;;13.90;73.90;;;;;;5051588;28;20017;-75
2021/10/18 06:19:48;;;;;;;15.18;4.93;;;13.90;74.10;;;;;;5051261;28;20063;-74
2021/10/18 06:22:13;;;;;;;13.80;4.10;;;14.00;74.40;;;;;;5050123;28;20056;-74
2021/10/18 06:24:39;;;;;;;20.27;4.20;;;13.90;74.60;;;;;;5050248;28;20025;-74
2021/10/18 06:27:04;;;;;;;9.40;3.83;;;13.90;74.80;;;;;;5051353;28;20027;-74
2021/10/18 06:29:31;;;;;;;13.68;4.00;;;13.90;75.10;;;;;;5049880;28;20031;-74
2021/10/18 06:31:57;;;;;;;10.90;3.92;;;13.90;75.20;;;;;;5050219;28;20025;-74
2021/10/18 06:34:22;;;;;;;14.27;4.00;;;13.90;75.30;;;;;;5051296;28;20139;-74
2021/10/18 06:36:48;;;;;;;16.70;4.13;;;13.90;75.40;;;;;;5051285;28;20112;-75
2021/10/18 06:39:13;;;;;;;16.77;4.30;;;13.90;75.60;;;;;;5050917;28;20018;-73
2021/10/18 06:41:39;;;;;;;13.05;4.20;;;14.00;75.70;;;;;;5051311;28;20414;-74
2021/10/18 06:44:04;;;;;;;12.95;3.80;;;13.90;75.70;;;;;;5051277;28;20427;-74
2021/10/18 06:46:30;;;;;;;8.48;4.00;;;14.00;75.90;;;;;;5051265;28;20387;-75
2021/10/18 06:48:55;;;;;;;10.18;3.67;;;14.00;76.00;;;;;;5051109;28;20036;-74
2021/10/18 06:51:21;;;;;;;6.70;3.03;;;14.00;75.90;;;;;;5051244;28;20025;-74
2021/10/18 06:53:51;;;;;;;9.80;3.70;;;14.00;76.00;;;;;;5051038;28;20044;-75
2021/10/18 06:56:16;;;;;;;10.13;3.63;;;14.10;76.10;;;;;;5053500;28;20108;-74
2021/10/18 06:58:42;;;;;;;10.65;4.25;;;14.10;76.20;;;;;;5053340;28;20131;-74
2021/10/18 07:01:07;;;;;;;7.65;3.95;;;14.10;76.20;;;;;;5054911;28;20025;-74
2021/10/18 07:03:33;;;;;;;8.45;3.63;;;14.10;76.10;;;;;;5054715;28;20029;-75
2021/10/18 07:06:01;;;;;;;10.60;3.47;;;14.10;76.20;;;;;;5054702;28;20044;-75
2021/10/18 07:08:26;;;;;;;9.07;3.25;;;14.10;76.20;;;;;;5053058;28;20025;-74
2021/10/18 07:10:52;;;;;;;9.18;3.33;;;14.10;76.20;;;;;;5054448;28;20418;-73
2021/10/18 07:13:17;;;;;;;9.65;4.03;;;14.10;76.20;;;;;;5054659;28;20493;-75
2021/10/18 07:15:43;;;;;;;7.18;3.50;;;14.10;76.10;;;;;;5053302;28;20498;-74
2021/10/18 07:18:09;;;;;;;8.43;3.50;;;14.10;76.20;;;;;;5054831;28;20355;-74
2021/10/18 07:20:34;;;;;;;7.15;3.33;;;14.10;76.40;;;;;;5054221;28;20021;-74
2021/10/18 07:23:01;;;;;;;6.75;3.40;;;14.00;76.50;;;;;;5054262;28;20048;-75
2021/10/18 07:25:27;;;;;;;9.45;3.65;;;14.00;76.60;;;;;;5053128;28;20402;-74
2021/10/18 07:27:53;;;;;;;7.60;3.50;;;14.00;76.70;;;;;;5054430;28;20451;-74
2021/10/18 07:30:20;;;;;;;6.60;3.55;;;14.00;76.80;;;;;;5052815;28;20052;-74
2021/10/18 07:32:45;;;;;;;8.60;3.50;;;14.00;76.90;;;;;;5054207;28;20048;-73
2021/10/18 07:35:14;;;;;;;8.25;3.53;;;14.00;77.00;;;;;;5052829;28;20021;-76
2021/10/18 07:37:40;;;;;;;7.68;3.58;;;14.00;77.00;;;;;;5053947;28;20029;-76
2021/10/18 07:40:07;;;;;;;7.13;3.50;;;14.00;77.00;;;;;;5053752;28;20593;-76
2021/10/18 07:42:33;;;;;;;6.95;3.38;;;14.00;77.00;;;;;;5052746;28;20417;-77
2021/10/18 07:44:58;;;;;;;8.60;3.28;;;14.00;76.90;;;;;;5052719;28;20117;-77
2021/10/18 07:47:25;;;;;;;7.63;3.97;;;14.10;76.90;;;;;;5052800;28;20516;-76
2021/10/18 07:49:52;;;;;;;8.13;3.53;;;14.10;76.80;;;;;;5053602;28;20025;-77
2021/10/18 07:52:18;;;;;;;7.38;3.88;;;14.00;76.70;;;;;;5053563;28;20029;-74
2021/10/18 07:54:44;;;;;;;9.30;3.20;;;14.10;76.80;;;;;;5053637;28;20490;-74
2021/10/18 07:57:10;;;;;;;7.97;3.65;;;14.10;76.70;;;;;;5052585;28;20437;-74
2021/10/18 07:59:36;;;;;;;8.00;3.47;;;14.10;76.50;;;;;;5053549;28;20024;-74
2021/10/18 08:02:02;;;;;;;6.63;3.10;;;14.20;76.40;;;;;;5053523;28;20549;-75
2021/10/18 08:04:27;;;;;;;7.32;3.55;;;14.20;76.30;;;;;;5052356;28;20024;-74
2021/10/18 08:06:53;;;;;;;6.88;3.40;;;14.30;76.30;;;;;;5049708;28;20446;-74
2021/10/18 08:09:20;;;;;;;6.88;3.22;;;14.30;76.20;;;;;;5067485;28;20025;-74
2021/10/18 08:11:45;;;;;;;9.25;3.67;;;14.40;76.00;;;;;;5051809;28;20127;-75
2021/10/18 08:14:11;;;;;;;6.63;3.40;;;14.40;75.90;;;;;;5068374;28;20025;-74
2021/10/18 08:16:37;;;;;;;7.47;3.55;;;14.40;75.70;;;;;;5053670;28;20028;-74
2021/10/18 08:19:03;;;;;;;6.78;4.00;;;14.40;75.70;;;;;;5053106;28;20059;-74
2021/10/18 08:21:28;;;;;;;6.88;3.35;;;14.50;75.60;;;;;;5053198;28;20035;-74
2021/10/18 08:23:54;;;;;;;9.30;3.70;;;14.50;75.60;;;;;;5053481;28;20032;-75
2021/10/18 08:26:19;;;;;;;6.55;3.67;;;14.40;75.50;;;;;;5068678;28;20021;-74
2021/10/18 08:28:45;;;;;;;6.68;3.78;;;14.40;75.40;;;;;;5052978;28;20036;-75
2021/10/18 08:31:12;;;;;;;7.07;3.30;;;14.40;75.30;;;;;;5068514;28;20120;-75
2021/10/18 08:33:38;;;;;;;7.32;3.40;;;14.50;75.30;;;;;;5053605;28;20031;-75
2021/10/18 08:36:05;;;;;;;6.53;3.47;;;14.50;75.20;;;;;;5052775;28;20033;-74
2021/10/18 08:38:47;;;;;;;5.80;3.30;;;14.50;75.10;;;;;;5052809;28;20013;-74
2021/10/18 08:41:27;;;;;;;8.35;4.18;;;14.50;75.10;;;;;;5052953;28;20017;-75
2021/10/18 08:46:23;;;;;;;6.57;3.97;;;14.50;74.80;;;;;;5052599;28;20390;-74
2021/10/18 08:48:51;;;;;;;6.35;3.42;;;14.50;74.80;;;;;;5067838;28;20067;-74
2021/10/18 08:51:17;;;;;;;7.10;3.75;;;14.50;74.80;;;;;;5052684;28;20032;-74
2021/10/18 08:53:44;;;;;;;6.63;3.70;;;14.50;74.80;;;;;;5052744;28;20070;-74
2021/10/18 08:56:09;;;;;;;6.07;3.45;;;14.50;74.80;;;;;;5067999;28;20117;-74
2021/10/18 08:58:35;;;;;;;6.70;3.88;;;14.50;74.90;;;;;;5052281;28;20096;-74
2021/10/18 09:01:00;;;;;;;6.50;3.92;;;14.50;74.90;;;;;;5052854;28;20032;-75
2021/10/18 09:03:29;;;;;;;7.47;3.90;;;14.50;74.90;;;;;;5052581;28;20025;-74
2021/10/18 09:06:22;;;;;;;6.65;3.67;;;14.50;74.90;;;;;;5052477;28;20047;-74
2021/10/18 09:08:48;;;;;;;6.03;3.50;;;14.50;74.80;;;;;;5052327;28;20052;-74
2021/10/18 09:11:17;;;;;;;7.85;3.80;;;14.50;74.70;;;;;;5067622;28;20040;-74
2021/10/18 09:14:02;;;;;;;6.05;3.40;;;14.60;74.70;;;;;;5052535;28;20021;-77
2021/10/18 09:16:32;;;;;;;5.47;3.40;;;14.50;74.70;;;;;;5051962;28;20021;-75
2021/10/18 09:19:11;;;;;;;6.22;3.83;;;14.60;74.80;;;;;;5051642;28;20501;-75
2021/10/18 09:21:40;;;;;;;7.22;4.15;;;14.60;74.90;;;;;;5052258;28;20059;-74
2021/10/18 09:24:08;;;;;;;7.07;4.07;;;14.50;74.80;;;;;;5067497;28;20108;-74
2021/10/18 09:26:34;;;;;;;8.10;4.00;;;14.50;74.60;;;;;;5067569;28;20159;-76
2021/10/18 09:29:10;;;;;;;7.78;4.18;;;14.50;74.50;;;;;;5051853;28;20021;-75
2021/10/18 09:31:36;;;;;;;7.03;4.20;;;14.60;74.40;;;;;;5052168;28;20029;-75
2021/10/18 09:34:07;;;;;;;7.15;4.20;;;14.60;74.30;;;;;;5067533;28;20029;-74
2021/10/18 09:36:35;;;;;;;6.65;4.10;;;14.60;74.20;;;;;;5067292;28;20045;-75
2021/10/18 09:39:22;;;;;;;6.97;4.10;;;14.70;74.10;;;;;;5051683;28;20056;-75
2021/10/18 09:42:06;;;;;;;6.47;3.97;;;14.70;74.00;;;;;;5052197;28;20079;-75
2021/10/18 10:52:42;;;;;;;8.60;4.88;;;14.60;75.30;;;;;;5055074;28;20163;-74
2021/10/18 10:55:25;;;;;;;7.80;4.65;;;14.60;75.30;;;;;;5054864;28;20035;-74
2021/10/18 10:57:54;;;;;;;8.52;5.10;;;14.60;75.20;;;;;;5054771;28;20067;-74
2021/10/18 11:00:41;;;;;;;9.10;5.22;;;14.60;75.20;;;;;;5054462;28;20468;-74
2021/10/18 11:03:31;;;;;;;9.75;5.47;;;14.60;75.10;;;;;;5054736;28;20109;-74
2021/10/18 11:06:02;;;;;;;7.80;4.90;;;14.70;74.90;;;;;;5070157;28;20045;-75
2021/10/18 11:08:29;;;;;;;7.10;4.70;;;14.70;74.80;;;;;;5054417;28;20094;-74
2021/10/18 11:10:54;;;;;;;8.48;4.95;;;14.70;74.80;;;;;;5054484;28;20036;-75
2021/10/18 11:13:20;;;;;;;8.50;5.40;;;14.70;74.80;;;;;;5054432;28;20533;-75
2021/10/18 11:15:46;;;;;;;8.80;5.75;;;14.70;74.90;;;;;;5053918;28;20021;-74
2021/10/18 11:18:15;;;;;;;9.52;5.07;;;14.70;74.90;;;;;;5054075;28;20029;-74
2021/10/18 11:20:40;;;;;;;8.32;5.68;;;14.70;75.00;;;;;;5054109;28;20422;-74
2021/10/18 11:23:06;;;;;;;8.40;5.28;;;14.70;75.00;;;;;;5054332;28;20017;-74
2021/10/18 11:25:36;;;;;;;7.72;4.78;;;14.70;75.10;;;;;;5054350;28;20103;-74
2021/10/18 11:28:05;;;;;;;10.48;5.30;;;14.70;75.10;;;;;;5054325;28;20017;-74
2021/10/18 11:30:33;;;;;;;9.10;5.10;;;14.70;75.20;;;;;;5068852;28;20029;-74
2021/10/18 11:33:14;;;;;;;8.02;5.13;;;14.70;75.20;;;;;;5055683;28;20120;-74
2021/10/18 11:35:40;;;;;;;8.45;5.40;;;14.70;75.20;;;;;;5052940;28;20021;-77
2021/10/18 11:38:10;;;;;;;8.88;5.15;;;14.70;75.80;;;;;;5052814;28;20474;-74
2021/10/18 11:40:51;;;;;;;9.50;5.32;;;14.70;75.30;;;;;;5051642;28;20390;-75
2021/10/18 11:43:19;;;;;;;9.20;5.25;;;14.60;75.40;;;;;;5052886;28;20025;-74
2021/10/18 11:45:48;;;;;;;12.38;6.03;;;14.70;75.60;;;;;;5054423;28;20040;-74
2021/10/18 11:48:22;;;;;;;9.15;5.57;;;14.70;75.60;;;;;;5053864;28;20112;-74
2021/10/18 11:50:52;;;;;;;12.25;5.53;;;14.60;75.60;;;;;;5053868;28;20407;-77
2021/10/18 11:53:20;;;;;;;9.85;4.80;;;14.70;75.70;;;;;;5053898;28;20049;-74
2021/10/18 11:55:51;;;;;;;8.65;5.30;;;14.70;75.70;;;;;;5052731;28;20140;-74
2021/10/18 11:58:25;;;;;;;13.10;6.00;;;14.60;75.70;;;;;;5052337;28;20475;-75
2021/10/18 12:01:05;;;;;;;8.70;4.90;;;14.60;75.80;;;;;;5052285;28;20350;-74
2021/10/18 12:03:32;;;;;;;12.32;5.32;;;14.60;75.80;;;;;;5041519;28;20057;-76
2021/10/18 12:06:02;;;;;;;9.98;5.10;;;14.60;75.80;;;;;;5049993;28;20033;-74
2021/10/18 12:08:30;;;;;;;10.90;5.25;;;14.60;75.80;;;;;;5052968;28;20025;-75
2021/10/18 12:10:58;;;;;;;8.55;5.05;;;14.70;75.90;;;;;;5053191;28;20052;-74
2021/10/18 12:13:36;;;;;;;8.13;4.90;;;14.70;75.90;;;;;;5041612;28;20017;-75
2021/10/18 12:16:08;;;;;;;10.57;5.65;;;14.70;75.70;;;;;;5041906;28;20470;-74
2021/10/18 12:18:42;;;;;;;11.65;5.72;;;14.70;75.70;;;;;;5032384;28;20026;-74
2021/10/18 12:21:11;;;;;;;13.02;5.13;;;14.70;75.70;;;;;;5055855;28;20036;-74
2021/10/18 12:23:52;;;;;;;14.30;5.85;;;14.70;75.70;;;;;;5046456;28;20044;-74
2021/10/18 12:26:19;;;;;;;23.23;6.13;;;14.80;75.70;;;;;;5051389;28;20031;-75
2021/10/18 12:28:49;;;;;;;19.92;5.82;;;14.80;75.70;;;;;;5049765;28;20048;-75
2021/10/18 12:31:34;;;;;;;21.05;5.85;;;14.80;75.50;;;;;;5051281;28;20017;-74
2021/10/18 12:34:05;;;;;;;23.50;6.20;;;14.80;75.50;;;;;;5051092;28;20052;-75
2021/10/18 12:36:31;;;;;;;24.30;6.97;;;14.90;75.40;;;;;;5051713;28;20103;-75
2021/10/18 12:38:57;;;;;;;22.48;6.30;;;14.90;75.40;;;;;;5052160;28;20070;-74
2021/10/18 12:41:23;;;;;;;18.50;6.18;;;14.90;75.40;;;;;;5051582;28;20075;-74
2021/10/18 12:43:50;;;;;;;20.92;6.10;;;14.90;75.50;;;;;;5052754;28;20477;-75
2021/10/18 12:46:27;;;;;;;19.70;6.40;;;14.90;75.50;;;;;;5051526;28;20063;-75
2021/10/18 12:49:04;;;;;;;23.48;6.50;;;14.90;75.70;;;;;;5052618;28;20267;-74
2021/10/18 12:51:34;;;;;;;13.85;5.85;;;14.80;76.20;;;;;;5052150;28;20017;-74
2021/10/18 12:54:23;;;;;;;18.55;5.63;;;14.80;75.90;;;;;;5051075;28;20067;-74
2021/10/18 12:57:06;;;;;;;16.63;5.80;;;14.80;76.00;;;;;;5052550;28;20064;-74
2021/10/18 12:59:34;;;;;;;16.27;6.32;;;14.80;76.30;;;;;;5052282;28;20552;-74
2021/10/18 13:02:23;;;;;;;18.05;6.05;;;14.70;76.20;;;;;;5051261;28;20525;-75
2021/10/18 13:05:09;;;;;;;13.38;5.60;;;14.70;76.40;;;;;;5052582;28;20222;-75
2021/10/18 13:07:36;;;;;;;12.98;5.57;;;14.80;76.60;;;;;;5052443;28;20025;-74
2021/10/18 13:10:02;;;;;;;12.10;5.38;;;14.70;76.60;;;;;;5050488;28;20040;-75
2021/10/18 13:12:28;;;;;;;11.80;5.75;;;14.70;76.50;;;;;;5052309;28;20032;-74
2021/10/18 13:14:54;;;;;;;15.63;5.63;;;14.70;76.70;;;;;;5052345;28;20474;-73
2021/10/18 13:17:21;;;;;;;13.93;5.25;;;14.70;76.80;;;;;;5052031;28;20489;-74
2021/10/18 13:19:46;;;;;;;11.30;4.95;;;14.70;76.80;;;;;;5050734;28;20025;-75
2021/10/18 13:22:12;;;;;;;12.43;5.50;;;14.70;77.40;;;;;;5052498;28;20092;-75
2021/10/18 13:24:38;;;;;;;14.40;5.20;;;14.70;77.00;;;;;;5050895;28;20021;-73
2021/10/18 13:27:04;;;;;;;12.65;5.28;;;14.70;77.00;;;;;;5052134;28;20060;-74
2021/10/18 13:29:30;;;;;;;14.27;5.07;;;14.70;77.00;;;;;;5051777;28;20071;-74
2021/10/18 13:31:56;;;;;;;11.68;4.63;;;14.70;77.10;;;;;;5051982;28;20029;-73
2021/10/18 13:34:21;;;;;;;13.18;5.10;;;14.70;77.20;;;;;;5051995;28;20028;-74
2021/10/18 13:36:47;;;;;;;10.38;5.30;;;14.70;77.20;;;;;;5051903;28;20483;-75
2021/10/18 13:39:13;;;;;;;11.95;5.25;;;14.70;77.20;;;;;;5051606;28;20102;-74
2021/10/18 13:41:38;;;;;;;9.90;4.50;;;14.60;77.30;;;;;;5051760;28;20077;-74
2021/10/18 13:44:07;;;;;;;9.00;5.03;;;14.60;77.40;;;;;;5051941;28;20033;-74
2021/10/18 13:46:33;;;;;;;11.38;4.80;;;14.70;77.50;;;;;;5051671;28;20028;-73
2021/10/18 13:48:59;;;;;;;10.23;4.85;;;14.70;77.60;;;;;;5050274;28;20025;-73
2021/10/18 13:51:24;;;;;;;10.73;4.60;;;14.60;77.60;;;;;;5050657;28;20035;-74
2021/10/18 13:53:51;;;;;;;10.38;4.53;;;14.60;77.70;;;;;;5050720;28;20021;-74
2021/10/18 13:56:17;;;;;;;10.32;5.03;;;14.60;77.80;;;;;;5051704;28;20101;-74